Time;durP1;ratioP1;P1;durP2;ratioP2;P2;SDS_P1;SDS_P2;PMS_P1;PMS_P2;Temp;Humidity;BMP_temperature;BMP_pressure;BME280_temperature;BME280_humidity;BME280_pressure;Samples;Min_cycle;Max_cycle;Signal;HPM_P1;HPM_P2
2023/01/18 00:01:03;;;;;;;1.85;0.80;;;1.70;99.90;;;;;;5074100;28;20036;-79
2023/01/18 00:03:32;;;;;;;1.13;0.80;;;1.60;99.90;;;;;;5067876;28;20049;-79
2023/01/18 00:06:00;;;;;;;2.03;1.17;;;1.60;99.90;;;;;;5079925;28;20040;-79
2023/01/18 00:08:27;;;;;;;1.95;0.95;;;1.60;99.90;;;;;;5082834;28;20067;-79
2023/01/18 00:10:53;;;;;;;1.42;0.95;;;1.60;99.90;;;;;;5070437;28;20079;-79
2023/01/18 00:13:18;;;;;;;1.73;0.88;;;1.60;99.90;;;;;;5060483;28;20089;-79
2023/01/18 00:15:44;;;;;;;0.88;0.63;;;1.50;99.90;;;;;;5076013;28;20496;-79
2023/01/18 00:18:10;;;;;;;3.25;1.30;;;1.50;99.90;;;;;;5070850;28;20089;-79
2023/01/18 00:20:35;;;;;;;1.58;0.77;;;1.50;99.90;;;;;;5082647;28;20044;-79
2023/01/18 00:23:01;;;;;;;2.45;0.95;;;1.50;99.90;;;;;;5058800;28;20048;-79
2023/01/18 00:25:27;;;;;;;1.60;1.10;;;1.50;99.90;;;;;;5068098;28;20044;-79
2023/01/18 00:27:54;;;;;;;1.50;1.00;;;1.50;99.90;;;;;;5086739;28;20086;-79
2023/01/18 00:30:22;;;;;;;1.08;0.80;;;1.50;99.90;;;;;;5076330;28;20062;-79
2023/01/18 00:32:51;;;;;;;1.50;1.00;;;1.50;99.90;;;;;;5073419;28;20071;-79
2023/01/18 00:35:20;;;;;;;2.65;1.42;;;1.50;99.90;;;;;;5073722;28;20040;-79
2023/01/18 00:37:47;;;;;;;1.38;0.70;;;1.50;99.90;;;;;;5062030;28;20039;-79
2023/01/18 00:40:13;;;;;;;1.25;1.02;;;1.50;99.90;;;;;;5069560;28;20548;-79
2023/01/18 00:45:24;;;;;;;3.78;1.50;;;1.50;99.90;;;;;;5070412;28;20406;-79
2023/01/18 00:47:50;;;;;;;2.15;1.17;;;1.50;99.90;;;;;;5053284;28;20040;-79
2023/01/18 00:50:15;;;;;;;1.17;0.95;;;1.50;99.90;;;;;;5081586;28;20043;-79
2023/01/18 00:52:45;;;;;;;2.25;1.38;;;1.50;99.90;;;;;;5071358;28;20124;-79
2023/01/18 00:55:11;;;;;;;1.67;1.05;;;1.50;99.90;;;;;;5069867;28;20862;-79
2023/01/18 00:57:37;;;;;;;1.50;0.73;;;1.50;99.90;;;;;;5058403;28;20037;-79
2023/01/18 01:00:04;;;;;;;1.98;1.13;;;1.50;99.90;;;;;;5078176;28;20426;-79
2023/01/18 01:02:30;;;;;;;2.38;1.08;;;1.50;99.90;;;;;;5084359;28;20038;-79
2023/01/18 01:07:39;;;;;;;2.85;1.67;;;1.50;99.90;;;;;;5072009;28;20080;-79
2023/01/18 01:10:08;;;;;;;1.90;1.15;;;1.50;99.90;;;;;;5081345;28;20529;-79
2023/01/18 01:26:15;;;;;;;1.35;0.93;;;1.30;99.90;;;;;;5070912;28;20421;-79
2023/01/18 01:28:44;;;;;;;4.82;1.30;;;1.30;99.90;;;;;;5069442;28;20036;-79
2023/01/18 01:31:14;;;;;;;1.77;0.98;;;1.30;99.90;;;;;;5057237;28;20486;-79
2023/01/18 01:33:41;;;;;;;1.23;0.80;;;1.30;99.90;;;;;;5055246;28;20048;-79
2023/01/18 01:36:14;;;;;;;2.97;1.02;;;1.30;99.90;;;;;;5064321;28;20046;-79
2023/01/18 01:38:40;;;;;;;2.35;1.20;;;1.40;99.90;;;;;;5071060;28;20038;-79
2023/01/18 01:41:27;;;;;;;2.60;1.60;;;1.40;99.90;;;;;;5071953;28;20040;-79
2023/01/18 01:43:55;;;;;;;3.45;1.23;;;1.40;99.90;;;;;;5069026;28;20124;-79
2023/01/18 01:46:49;;;;;;;2.63;1.45;;;1.40;99.90;;;;;;5066583;28;20445;-79
2023/01/18 01:49:23;;;;;;;3.40;1.25;;;1.40;99.90;;;;;;5064167;28;20063;-79
2023/01/18 01:52:05;;;;;;;1.58;1.25;;;1.40;99.90;;;;;;5111395;27;20398;-79
2023/01/18 01:54:37;;;;;;;3.13;1.80;;;1.30;99.90;;;;;;5056047;28;20754;-79
2023/01/18 01:57:11;;;;;;;1.95;1.08;;;1.30;99.90;;;;;;5068479;28;20043;-79
2023/01/18 01:59:43;;;;;;;2.10;1.42;;;1.30;99.90;;;;;;5077802;28;20036;-79
2023/01/18 02:02:09;;;;;;;3.33;1.35;;;1.30;99.90;;;;;;5065110;28;20100;-79
2023/01/18 02:04:36;;;;;;;3.42;1.83;;;1.30;99.90;;;;;;5079882;28;20115;-79
2023/01/18 02:07:02;;;;;;;2.58;1.33;;;1.30;99.90;;;;;;5074266;28;20168;-79
2023/01/18 02:09:27;;;;;;;1.50;1.15;;;1.30;99.90;;;;;;5069391;28;20068;-79
2023/01/18 02:11:54;;;;;;;2.42;1.50;;;1.30;99.90;;;;;;5051930;28;20045;-79
2023/01/18 02:14:23;;;;;;;1.52;1.20;;;1.30;99.90;;;;;;5056039;28;20039;-79
2023/01/18 02:17:04;;;;;;;1.95;1.05;;;1.30;99.90;;;;;;5087718;28;20059;-79
2023/01/18 02:19:59;;;;;;;2.42;1.70;;;1.30;99.90;;;;;;5057125;28;20158;-79
2023/01/18 02:22:39;;;;;;;2.83;1.45;;;1.20;99.90;;;;;;5070760;28;20036;-79
2023/01/18 02:25:27;;;;;;;3.85;1.77;;;1.20;99.90;;;;;;5084533;28;20043;-79
2023/01/18 02:28:16;;;;;;;2.25;1.80;;;1.30;99.90;;;;;;5084010;28;20104;-79
2023/01/18 02:30:59;;;;;;;2.72;1.80;;;1.30;99.90;;;;;;5076685;28;20099;-79
2023/01/18 02:34:07;;;;;;;1.63;1.27;;;1.30;99.90;;;;;;5081863;28;20076;-79
2023/01/18 02:36:53;;;;;;;3.15;1.10;;;1.20;99.90;;;;;;5073909;28;20032;-79
2023/01/18 02:39:37;;;;;;;2.75;1.30;;;1.30;99.90;;;;;;5077701;28;20481;-79
2023/01/18 02:48:23;;;;;;;2.55;1.40;;;1.20;99.90;;;;;;5101143;28;20048;-79
2023/01/18 02:50:49;;;;;;;3.05;1.73;;;1.20;99.90;;;;;;5076354;28;20040;-79
2023/01/18 02:53:15;;;;;;;3.17;1.48;;;1.20;99.90;;;;;;5085354;28;20039;-79
2023/01/18 02:56:02;;;;;;;2.88;1.17;;;1.20;99.90;;;;;;5066501;28;20089;-79
2023/01/18 02:58:56;;;;;;;2.30;1.50;;;1.20;99.90;;;;;;5062254;28;20043;-79
2023/01/18 03:01:46;;;;;;;1.65;1.15;;;1.10;99.90;;;;;;5074008;28;20093;-79
2023/01/18 03:04:25;;;;;;;4.38;1.30;;;1.20;99.90;;;;;;5067516;28;20058;-79
2023/01/18 03:06:58;;;;;;;3.08;1.50;;;1.20;99.90;;;;;;5052519;28;20032;-79
2023/01/18 03:09:26;;;;;;;2.92;1.70;;;1.20;99.90;;;;;;5077031;28;20032;-79
2023/01/18 03:12:10;;;;;;;3.97;1.48;;;1.20;99.90;;;;;;5073501;28;20478;-79
2023/01/18 03:14:54;;;;;;;1.77;1.08;;;1.20;99.90;;;;;;5058708;28;20170;-79
2023/01/18 03:17:30;;;;;;;2.63;1.25;;;1.20;99.90;;;;;;5070222;28;20044;-79
2023/01/18 03:20:05;;;;;;;2.75;1.92;;;1.20;99.90;;;;;;5055851;28;20063;-79
2023/01/18 03:25:34;;;;;;;3.30;1.80;;;1.20;99.90;;;;;;5071759;28;20112;-79
2023/01/18 03:33:55;;;;;;;3.13;1.52;;;1.30;99.90;;;;;;5075789;28;20041;-79
2023/01/18 03:36:23;;;;;;;2.88;1.27;;;1.30;99.90;;;;;;5090330;28;20581;-79
2023/01/18 03:38:56;;;;;;;3.08;1.42;;;1.30;99.90;;;;;;5119254;27;20378;-79
2023/01/18 03:41:26;;;;;;;2.85;1.67;;;1.30;99.90;;;;;;5058889;28;20401;-79
2023/01/18 03:43:55;;;;;;;2.17;1.55;;;1.40;99.90;;;;;;5076564;28;20455;-79
2023/01/18 03:46:25;;;;;;;1.35;1.02;;;1.30;99.90;;;;;;5090331;28;20510;-79
2023/01/18 03:48:50;;;;;;;2.00;1.20;;;1.30;99.90;;;;;;5072034;28;20032;-79
2023/01/18 03:51:25;;;;;;;3.60;1.77;;;1.20;99.90;;;;;;5060010;28;20041;-79
2023/01/18 03:54:14;;;;;;;3.97;1.83;;;1.20;99.90;;;;;;5085685;28;20043;-79
2023/01/18 03:56:51;;;;;;;3.20;1.45;;;1.20;99.90;;;;;;5082765;28;20438;-79
2023/01/18 03:59:17;;;;;;;2.35;1.48;;;1.10;99.90;;;;;;5055035;28;20037;-79
2023/01/18 04:01:46;;;;;;;3.08;1.80;;;1.10;99.90;;;;;;5055014;28;20047;-79
2023/01/18 04:04:13;;;;;;;2.00;1.45;;;1.10;99.90;;;;;;5084495;28;20105;-79
2023/01/18 04:06:39;;;;;;;3.85;1.73;;;1.10;99.90;;;;;;5089684;28;20048;-79
2023/01/18 04:09:05;;;;;;;2.13;1.30;;;1.10;99.90;;;;;;5088317;28;20385;-79
2023/01/18 04:11:30;;;;;;;1.88;1.40;;;1.10;99.90;;;;;;5082720;28;20462;-79
2023/01/18 04:13:56;;;;;;;2.67;1.35;;;1.00;99.90;;;;;;5083210;28;20402;-79
2023/01/18 04:16:22;;;;;;;3.28;1.92;;;1.00;99.90;;;;;;5067381;28;20044;-79
2023/01/18 04:18:47;;;;;;;2.72;1.73;;;1.00;99.90;;;;;;5062610;28;20044;-79
2023/01/18 04:21:13;;;;;;;4.65;2.40;;;1.00;99.90;;;;;;5079091;28;20044;-79
2023/01/18 04:23:38;;;;;;;2.72;1.63;;;1.00;99.90;;;;;;5071867;28;20059;-79
2023/01/18 04:26:04;;;;;;;3.20;2.05;;;1.00;99.90;;;;;;5088000;28;20036;-79
2023/01/18 04:28:32;;;;;;;2.40;1.38;;;1.00;99.90;;;;;;5073467;28;20071;-79
2023/01/18 04:30:58;;;;;;;4.22;2.47;;;1.00;99.90;;;;;;5069657;28;20036;-79
2023/01/18 04:33:25;;;;;;;2.33;1.48;;;0.90;99.90;;;;;;5067400;28;20036;-79
2023/01/18 04:35:55;;;;;;;2.83;2.00;;;0.90;99.90;;;;;;5069268;28;20479;-79
2023/01/18 04:38:21;;;;;;;4.88;2.38;;;0.90;99.90;;;;;;5053036;28;20048;-79
2023/01/18 04:40:47;;;;;;;3.53;1.67;;;0.90;99.90;;;;;;5087465;28;20043;-79
2023/01/18 04:43:12;;;;;;;2.38;1.65;;;0.90;99.90;;;;;;5081621;28;20078;-79
2023/01/18 04:45:38;;;;;;;2.33;1.42;;;0.90;99.90;;;;;;5082830;28;20047;-79
2023/01/18 04:48:04;;;;;;;1.95;1.35;;;0.90;99.90;;;;;;5086549;28;20032;-79
2023/01/18 04:50:30;;;;;;;3.35;1.63;;;0.80;99.90;;;;;;5087649;28;20048;-79
2023/01/18 04:52:56;;;;;;;5.05;2.22;;;0.80;99.90;;;;;;5082707;28;20044;-79
2023/01/18 04:55:22;;;;;;;5.78;2.05;;;0.80;99.90;;;;;;5052890;28;20033;-79
2023/01/18 04:57:55;;;;;;;4.60;2.00;;;0.80;99.90;;;;;;5074334;28;20169;-79
2023/01/18 05:00:21;;;;;;;5.72;1.98;;;0.80;99.90;;;;;;5087892;28;20401;-79
2023/01/18 05:02:47;;;;;;;2.65;2.00;;;0.80;99.90;;;;;;5073662;28;20120;-79
2023/01/18 05:05:12;;;;;;;2.47;1.67;;;0.80;99.90;;;;;;5074358;28;20116;-79
2023/01/18 05:07:38;;;;;;;3.60;2.38;;;0.80;99.90;;;;;;5069772;28;20135;-79
2023/01/18 05:10:04;;;;;;;3.13;1.85;;;0.80;99.90;;;;;;5052453;28;20044;-79
2023/01/18 05:12:30;;;;;;;3.15;2.03;;;0.80;99.90;;;;;;5054990;28;20048;-79
2023/01/18 05:14:55;;;;;;;2.90;1.90;;;0.80;99.90;;;;;;5085145;28;20040;-79
2023/01/18 05:17:26;;;;;;;2.30;2.10;;;0.70;99.90;;;;;;5062263;28;20051;-79
2023/01/18 05:19:54;;;;;;;2.03;1.45;;;0.80;99.90;;;;;;5071863;28;20082;-79
2023/01/18 05:22:21;;;;;;;3.13;1.90;;;0.80;99.90;;;;;;5081058;28;20036;-79
2023/01/18 05:24:47;;;;;;;3.03;2.00;;;0.70;99.90;;;;;;5077357;28;20502;-79
2023/01/18 05:27:13;;;;;;;2.83;1.80;;;0.80;99.90;;;;;;5085607;28;20059;-79
2023/01/18 05:29:39;;;;;;;2.13;1.35;;;0.80;99.90;;;;;;5087827;28;20536;-79
2023/01/18 05:32:05;;;;;;;2.75;1.75;;;0.70;99.90;;;;;;5062890;28;20124;-79
2023/01/18 05:34:31;;;;;;;4.57;2.28;;;0.70;99.90;;;;;;5096536;27;20402;-79
2023/01/18 05:36:57;;;;;;;2.85;1.88;;;0.70;99.90;;;;;;5072270;28;20097;-79
2023/01/18 05:39:23;;;;;;;4.07;1.88;;;0.70;99.90;;;;;;5070952;28;20461;-79
2023/01/18 05:41:49;;;;;;;2.88;2.05;;;0.70;99.90;;;;;;5082861;28;20142;-79
2023/01/18 05:44:14;;;;;;;2.97;1.60;;;0.80;99.90;;;;;;5054238;28;20089;-79
2023/01/18 05:46:40;;;;;;;4.18;2.10;;;0.80;99.90;;;;;;5075763;28;20543;-79
2023/01/18 05:49:05;;;;;;;1.90;1.35;;;0.70;99.90;;;;;;5082400;28;20033;-79
2023/01/18 05:51:31;;;;;;;2.55;1.70;;;0.70;99.90;;;;;;5077809;28;20040;-79
2023/01/18 05:53:56;;;;;;;4.07;2.28;;;0.70;99.90;;;;;;5071322;28;20107;-79
2023/01/18 05:56:22;;;;;;;6.20;2.53;;;0.70;99.90;;;;;;5059119;28;20051;-79
2023/01/18 05:58:48;;;;;;;3.47;1.77;;;0.70;99.90;;;;;;5065776;28;20051;-79
2023/01/18 06:01:14;;;;;;;4.03;1.50;;;0.70;99.90;;;;;;5070177;28;20072;-79
2023/01/18 06:03:39;;;;;;;2.85;1.45;;;0.60;99.90;;;;;;5071211;28;20043;-79
2023/01/18 06:06:05;;;;;;;3.53;1.75;;;0.60;99.90;;;;;;5070596;28;20040;-79
2023/01/18 06:08:31;;;;;;;3.78;2.05;;;0.70;99.90;;;;;;5087948;28;20028;-79
2023/01/18 06:10:58;;;;;;;4.75;2.75;;;0.70;99.90;;;;;;5067265;28;21014;-79
2023/01/18 06:13:28;;;;;;;3.58;2.20;;;0.70;99.90;;;;;;5087511;28;20042;-79
2023/01/18 06:15:55;;;;;;;3.40;1.98;;;0.70;99.90;;;;;;5056395;28;20093;-79
2023/01/18 06:18:22;;;;;;;3.80;2.13;;;0.60;99.90;;;;;;5078713;28;20055;-79
2023/01/18 06:20:47;;;;;;;3.10;1.83;;;0.70;99.90;;;;;;5060775;28;20119;-79
2023/01/18 06:23:13;;;;;;;3.35;2.20;;;0.70;99.90;;;;;;5056445;28;20131;-79
2023/01/18 06:25:38;;;;;;;7.00;1.33;;;0.70;99.90;;;;;;5073796;28;20051;-79
2023/01/18 06:28:05;;;;;;;3.90;1.98;;;0.70;99.90;;;;;;5062555;28;20508;-79
2023/01/18 06:30:31;;;;;;;7.55;2.20;;;0.70;99.90;;;;;;5085090;28;20093;-79
2023/01/18 06:32:56;;;;;;;3.97;1.40;;;0.70;99.90;;;;;;5075954;28;20431;-79
2023/01/18 06:35:22;;;;;;;1.30;1.00;;;0.70;99.90;;;;;;5072251;28;20036;-79
2023/01/18 06:37:48;;;;;;;2.63;1.45;;;0.70;99.90;;;;;;5062331;28;20500;-79
2023/01/18 06:40:14;;;;;;;2.63;1.27;;;0.60;99.90;;;;;;5067866;28;20051;-79
2023/01/18 06:42:40;;;;;;;3.15;1.60;;;0.70;99.90;;;;;;5067816;28;20711;-81
2023/01/18 06:45:07;;;;;;;3.83;2.03;;;0.70;99.90;;;;;;5051746;28;20559;-79
2023/01/18 06:47:33;;;;;;;2.47;1.20;;;0.70;99.90;;;;;;5078304;28;20067;-79
2023/01/18 06:49:59;;;;;;;4.22;1.98;;;0.70;99.90;;;;;;5077313;28;20068;-79
2023/01/18 06:52:24;;;;;;;2.22;1.27;;;0.70;99.90;;;;;;5090564;28;20418;-79
2023/01/18 06:54:50;;;;;;;5.55;2.55;;;0.70;99.90;;;;;;5072905;28;20044;-79
2023/01/18 06:57:15;;;;;;;3.00;1.88;;;0.80;99.90;;;;;;5072071;28;20040;-78
2023/01/18 06:59:41;;;;;;;2.72;1.55;;;0.80;99.90;;;;;;5073442;28;20575;-79
2023/01/18 07:02:10;;;;;;;3.85;1.70;;;0.80;99.90;;;;;;5046403;28;21280;-79
2023/01/18 07:04:42;;;;;;;2.53;1.27;;;0.80;99.90;;;;;;5061232;28;20081;-79
2023/01/18 07:07:08;;;;;;;2.25;1.77;;;0.80;99.90;;;;;;5066473;28;20037;-79
2023/01/18 07:09:34;;;;;;;2.95;2.15;;;0.80;99.90;;;;;;5067971;28;20051;-79
2023/01/18 07:12:00;;;;;;;4.47;2.17;;;0.80;99.90;;;;;;5064331;28;20506;-85
2023/01/18 07:14:25;;;;;;;4.15;2.42;;;0.90;99.90;;;;;;5065686;28;20035;-83
2023/01/18 07:16:51;;;;;;;4.55;2.17;;;0.90;99.90;;;;;;5068129;28;20398;-84
2023/01/18 07:19:16;;;;;;;4.28;2.38;;;0.90;99.90;;;;;;5052037;28;20093;-84
2023/01/18 07:21:42;;;;;;;3.40;1.92;;;0.90;99.90;;;;;;5069426;28;20054;-79
2023/01/18 07:24:07;;;;;;;2.75;1.40;;;0.90;99.90;;;;;;5064141;28;20055;-78
2023/01/18 07:26:33;;;;;;;2.55;1.48;;;0.90;99.90;;;;;;5051655;28;20178;-78
2023/01/18 07:28:59;;;;;;;3.13;2.22;;;0.90;99.90;;;;;;5067189;28;20061;-79
2023/01/18 07:31:25;;;;;;;3.55;2.20;;;0.90;99.90;;;;;;5069869;28;20054;-78
2023/01/18 07:33:51;;;;;;;2.92;1.80;;;0.90;99.90;;;;;;5087861;28;20512;-78
2023/01/18 07:36:16;;;;;;;3.63;1.63;;;0.80;99.90;;;;;;5061695;28;20119;-78
2023/01/18 07:38:42;;;;;;;4.10;1.95;;;0.80;99.90;;;;;;5069909;28;20173;-78
2023/01/18 07:41:13;;;;;;;3.70;1.95;;;0.90;99.90;;;;;;5065802;28;20330;-78
2023/01/18 07:43:39;;;;;;;3.28;2.10;;;0.90;99.90;;;;;;5070540;28;20049;-78
2023/01/18 07:46:07;;;;;;;3.45;2.08;;;0.80;99.90;;;;;;5066882;28;20051;-78
2023/01/18 07:48:33;;;;;;;2.55;1.60;;;0.80;99.90;;;;;;5067502;28;20516;-78
2023/01/18 07:51:04;;;;;;;2.35;1.65;;;0.80;99.90;;;;;;5061639;28;20025;-78
2023/01/18 07:53:32;;;;;;;3.33;1.92;;;0.80;99.90;;;;;;5065980;28;20124;-79
2023/01/18 07:55:59;;;;;;;2.03;1.25;;;0.80;99.90;;;;;;5069962;28;20420;-78
2023/01/18 07:58:25;;;;;;;2.58;2.15;;;0.80;99.90;;;;;;5069356;28;20036;-78
2023/01/18 08:00:51;;;;;;;3.30;1.73;;;0.80;99.90;;;;;;5066219;28;20044;-78
2023/01/18 08:03:18;;;;;;;4.07;2.17;;;0.80;99.90;;;;;;5071357;28;20036;-78
2023/01/18 08:05:45;;;;;;;3.00;1.60;;;0.80;99.90;;;;;;5053748;28;20129;-78
2023/01/18 08:08:13;;;;;;;1.75;1.33;;;0.70;99.90;;;;;;5071732;28;20040;-78
2023/01/18 08:10:39;;;;;;;1.98;1.65;;;0.80;99.90;;;;;;5073875;28;20083;-78
2023/01/18 08:13:08;;;;;;;2.40;1.45;;;0.80;99.90;;;;;;5074157;28;20059;-78
2023/01/18 08:15:33;;;;;;;2.15;1.33;;;0.80;99.90;;;;;;5075921;28;20097;-78
2023/01/18 08:18:07;;;;;;;2.78;1.60;;;0.80;99.90;;;;;;5081335;28;20470;-78
2023/01/18 08:20:33;;;;;;;6.60;2.30;;;0.80;99.90;;;;;;5050818;28;20043;-78
2023/01/18 08:23:00;;;;;;;2.90;1.27;;;0.80;99.90;;;;;;5091032;28;20032;-78
2023/01/18 08:25:32;;;;;;;2.13;1.08;;;0.80;99.90;;;;;;5077434;28;20140;-78
2023/01/18 08:28:01;;;;;;;3.90;1.90;;;0.90;99.90;;;;;;5072759;28;20074;-78
2023/01/18 08:30:33;;;;;;;2.28;1.73;;;0.90;99.90;;;;;;5065435;28;20536;-78
2023/01/18 08:33:00;;;;;;;3.67;1.88;;;0.90;99.90;;;;;;5071163;28;20041;-78
2023/01/18 08:35:28;;;;;;;1.92;1.55;;;0.80;99.90;;;;;;5086093;28;20031;-78
2023/01/18 08:37:55;;;;;;;4.55;2.22;;;0.80;99.90;;;;;;5071698;28;20451;-78
2023/01/18 08:40:24;;;;;;;7.28;1.95;;;0.80;99.90;;;;;;5074413;28;20063;-78
2023/01/18 08:42:54;;;;;;;3.28;2.00;;;0.80;99.90;;;;;;5061846;28;20032;-78
2023/01/18 08:45:20;;;;;;;4.70;2.05;;;0.80;99.90;;;;;;5052944;28;20507;-78
2023/01/18 08:47:46;;;;;;;3.83;1.70;;;0.80;99.90;;;;;;5059107;28;20044;-78
2023/01/18 08:50:12;;;;;;;4.40;2.00;;;0.80;99.90;;;;;;5060952;28;20047;-78
2023/01/18 08:52:37;;;;;;;3.80;1.83;;;0.80;99.90;;;;;;5074844;28;20036;-78
2023/01/18 08:55:04;;;;;;;6.75;2.22;;;0.90;99.90;;;;;;5099602;27;20032;-78
2023/01/18 08:57:31;;;;;;;3.28;2.30;;;0.90;99.90;;;;;;5071598;28;20117;-79
2023/01/18 08:59:56;;;;;;;3.60;2.25;;;0.90;99.90;;;;;;5055933;28;20122;-79
2023/01/18 09:02:23;;;;;;;4.22;1.98;;;1.00;99.90;;;;;;5054886;28;20620;-79
2023/01/18 09:04:49;;;;;;;5.03;2.20;;;1.00;99.90;;;;;;5075742;28;20036;-79
2023/01/18 09:07:16;;;;;;;2.97;1.95;;;1.00;99.90;;;;;;5056253;28;20090;-79
2023/01/18 09:09:43;;;;;;;3.25;2.20;;;1.00;99.90;;;;;;5060737;28;20135;-79
2023/01/18 09:12:09;;;;;;;2.67;1.80;;;1.00;99.90;;;;;;5081495;28;20131;-79
2023/01/18 09:14:35;;;;;;;3.75;2.35;;;1.10;99.90;;;;;;5078151;28;20101;-79
2023/01/18 09:17:00;;;;;;;3.40;2.38;;;1.10;99.90;;;;;;5056739;28;20497;-79
2023/01/18 09:19:26;;;;;;;3.95;2.38;;;1.10;99.90;;;;;;5059884;28;20033;-79
2023/01/18 09:21:52;;;;;;;3.45;2.22;;;1.10;99.90;;;;;;5074773;28;20412;-79
2023/01/18 09:24:17;;;;;;;2.88;1.95;;;1.20;99.90;;;;;;5062564;28;20055;-79
2023/01/18 09:26:45;;;;;;;5.68;2.70;;;1.20;99.90;;;;;;5063561;28;20037;-79
2023/01/18 09:29:10;;;;;;;3.72;2.05;;;1.20;99.90;;;;;;5089366;28;20505;-79
2023/01/18 09:31:36;;;;;;;8.95;2.33;;;1.30;99.90;;;;;;5072206;28;20024;-79
2023/01/18 09:34:02;;;;;;;4.38;2.42;;;1.30;99.90;;;;;;5075931;28;20671;-79
2023/01/18 09:36:27;;;;;;;4.60;2.28;;;1.40;99.90;;;;;;5071916;28;20040;-79
2023/01/18 09:38:54;;;;;;;3.10;1.85;;;1.40;99.90;;;;;;5080643;28;20032;-79
2023/01/18 09:41:38;;;;;;;2.70;1.80;;;1.50;99.90;;;;;;5079392;28;20500;-79
2023/01/18 09:44:22;;;;;;;7.10;3.03;;;1.50;99.90;;;;;;5072590;28;20032;-78
2023/01/18 09:46:53;;;;;;;4.07;2.28;;;1.50;99.90;;;;;;5073678;28;20098;-79
2023/01/18 09:49:36;;;;;;;4.97;2.55;;;1.50;99.90;;;;;;5073438;28;20037;-79
2023/01/18 09:52:14;;;;;;;4.20;2.15;;;1.50;99.90;;;;;;5088015;27;20040;-79
2023/01/18 09:55:00;;;;;;;3.90;2.28;;;1.50;99.90;;;;;;5061265;28;20044;-79
2023/01/18 09:57:45;;;;;;;4.22;2.53;;;1.60;99.90;;;;;;5087019;27;21976;-79
2023/01/18 10:00:24;;;;;;;3.83;1.85;;;1.60;99.90;;;;;;5082534;28;20072;-79
2023/01/18 10:03:01;;;;;;;4.13;2.25;;;1.60;99.90;;;;;;5071989;28;20161;-79
2023/01/18 10:05:31;;;;;;;2.45;1.90;;;1.70;99.90;;;;;;5075191;28;20044;-79
2023/01/18 10:08:03;;;;;;;3.95;2.00;;;1.70;99.90;;;;;;5053195;28;20037;-79
2023/01/18 10:10:51;;;;;;;5.10;2.08;;;1.80;99.90;;;;;;5054291;28;20124;-80
2023/01/18 10:14:09;;;;;;;2.83;2.03;;;1.80;99.90;;;;;;5054378;28;20041;-80
2023/01/18 10:16:36;;;;;;;4.55;2.72;;;1.90;99.90;;;;;;5045567;28;20068;-79
2023/01/18 10:19:09;;;;;;;3.50;2.05;;;1.90;99.90;;;;;;5069214;28;20054;-79
2023/01/18 10:21:56;;;;;;;2.45;1.60;;;1.90;99.90;;;;;;5071156;28;20563;-79
2023/01/18 10:24:54;;;;;;;4.65;2.58;;;2.00;99.90;;;;;;5063589;28;20068;-79
2023/01/18 10:27:41;;;;;;;2.45;1.77;;;2.00;99.90;;;;;;5065165;28;20041;-79
2023/01/18 10:30:42;;;;;;;4.90;2.53;;;2.10;99.90;;;;;;5056370;28;20043;-80
2023/01/18 10:33:27;;;;;;;3.75;2.08;;;2.10;99.90;;;;;;5053569;28;20123;-79
2023/01/18 10:35:59;;;;;;;2.97;1.67;;;2.20;99.90;;;;;;5070599;28;20514;-79
2023/01/18 10:38:28;;;;;;;3.92;1.55;;;2.20;99.90;;;;;;5063924;28;20039;-79
2023/01/18 10:41:02;;;;;;;6.22;2.17;;;2.20;99.90;;;;;;5050321;28;20034;-79
2023/01/18 10:43:30;;;;;;;3.70;2.08;;;2.30;99.90;;;;;;5079577;28;20115;-79
2023/01/18 10:45:56;;;;;;;7.00;1.95;;;2.30;99.90;;;;;;5072500;28;20048;-79
2023/01/18 10:48:29;;;;;;;3.38;1.80;;;2.40;99.90;;;;;;5069483;28;20036;-79
2023/01/18 10:50:59;;;;;;;4.78;1.55;;;2.40;99.90;;;;;;5070953;28;20252;-79
2023/01/18 10:53:29;;;;;;;2.83;2.17;;;2.50;99.90;;;;;;5068294;28;20432;-78
2023/01/18 10:55:58;;;;;;;10.68;2.03;;;2.50;99.90;;;;;;5050138;28;20036;-78
2023/01/18 10:58:27;;;;;;;3.72;1.70;;;2.50;99.90;;;;;;5050065;28;20043;-78
2023/01/18 11:00:54;;;;;;;3.05;2.05;;;2.50;99.90;;;;;;5073704;28;20513;-78
2023/01/18 11:03:21;;;;;;;3.63;2.00;;;2.60;99.90;;;;;;5067961;28;20214;-78
2023/01/18 11:05:47;;;;;;;2.70;1.42;;;2.60;99.90;;;;;;5066377;28;20106;-78
2023/01/18 11:08:24;;;;;;;3.22;1.50;;;2.70;99.90;;;;;;5068810;28;20349;-78
2023/01/18 11:11:16;;;;;;;1.75;1.48;;;2.70;99.90;;;;;;5053068;28;20048;-78
2023/01/18 11:13:47;;;;;;;3.75;1.83;;;2.70;99.90;;;;;;5062668;28;20612;-78
2023/01/18 11:16:21;;;;;;;4.38;1.65;;;2.80;99.90;;;;;;5070630;28;20433;-78
2023/01/18 11:18:55;;;;;;;1.77;1.33;;;2.80;99.90;;;;;;5068721;28;20115;-78
2023/01/18 11:21:22;;;;;;;3.83;1.92;;;2.80;99.90;;;;;;5050842;28;21102;-78
2023/01/18 11:23:48;;;;;;;2.80;1.77;;;2.80;99.90;;;;;;5070208;28;20032;-77
2023/01/18 11:26:20;;;;;;;4.88;2.13;;;2.90;99.90;;;;;;5053503;28;20481;-78
2023/01/18 11:28:59;;;;;;;9.43;1.73;;;2.90;99.90;;;;;;5055932;28;20092;-78
2023/01/18 11:31:27;;;;;;;1.95;1.30;;;3.00;99.90;;;;;;5069646;28;20109;-78
2023/01/18 11:34:05;;;;;;;4.32;2.15;;;2.90;99.90;;;;;;5087196;28;20048;-78
2023/01/18 11:36:37;;;;;;;3.28;1.80;;;3.00;99.90;;;;;;5068195;28;20032;-78
2023/01/18 11:39:23;;;;;;;2.55;1.85;;;3.00;99.90;;;;;;5071096;28;20497;-78
2023/01/18 11:41:49;;;;;;;;;;;3.10;99.90;;;;;;5071261;28;20509;-78
2023/01/18 11:44:23;;;;;;;1.73;1.35;;;3.10;99.90;;;;;;5055287;28;20269;-79
2023/01/18 11:46:52;;;;;;;3.83;2.13;;;3.10;99.90;;;;;;5061915;28;21391;-79
2023/01/18 11:49:31;;;;;;;2.05;1.52;;;3.20;99.90;;;;;;5076501;28;20045;-79
2023/01/18 11:52:02;;;;;;;3.33;1.77;;;3.20;99.90;;;;;;5052766;28;20067;-79
2023/01/18 11:54:38;;;;;;;7.63;1.52;;;3.20;99.90;;;;;;5059762;28;20166;-79
2023/01/18 11:57:05;;;;;;;;;;;3.20;99.90;;;;;;5067199;28;20047;-79
2023/01/18 11:59:38;;;;;;;2.40;1.55;;;3.30;99.90;;;;;;5072766;28;19916;-79
2023/01/18 12:02:29;;;;;;;2.30;1.63;;;3.30;99.90;;;;;;5063368;28;20058;-79
2023/01/18 12:05:32;;;;;;;2.50;1.45;;;3.30;99.90;;;;;;5069822;28;20036;-80
2023/01/18 12:08:28;;;;;;;6.13;2.03;;;3.30;99.90;;;;;;5068885;28;21091;-79
2023/01/18 12:11:17;;;;;;;3.42;1.40;;;3.40;99.90;;;;;;5066601;28;20055;-79
2023/01/18 12:14:02;;;;;;;2.70;1.65;;;3.50;99.90;;;;;;5073728;28;20040;-79
2023/01/18 12:16:52;;;;;;;3.80;1.27;;;3.50;99.90;;;;;;5056462;28;20093;-79
2023/01/18 12:19:55;;;;;;;4.28;1.83;;;3.50;99.90;;;;;;5075457;28;20457;-80
2023/01/18 12:22:30;;;;;;;2.03;1.02;;;3.60;99.90;;;;;;5056028;28;20526;-79
2023/01/18 12:25:06;;;;;;;2.33;1.17;;;3.60;99.90;;;;;;5073146;28;20036;-80
2023/01/18 12:27:51;;;;;;;2.83;1.30;;;3.70;99.90;;;;;;5087695;27;20047;-80
2023/01/18 12:30:24;;;;;;;2.53;1.23;;;3.70;99.90;;;;;;5071609;28;20037;-80
2023/01/18 12:33:01;;;;;;;3.10;1.38;;;3.70;99.90;;;;;;5086970;27;20096;-80
2023/01/18 12:35:35;;;;;;;2.85;1.67;;;3.70;99.90;;;;;;5070105;28;20028;-80
2023/01/18 12:38:20;;;;;;;3.70;1.23;;;3.80;99.90;;;;;;5071572;28;20047;-80
2023/01/18 12:41:17;;;;;;;2.85;1.35;;;3.80;99.90;;;;;;5082427;28;20750;-79
2023/01/18 12:44:15;;;;;;;3.05;1.85;;;3.80;99.90;;;;;;5065989;28;20084;-79
2023/01/18 12:47:02;;;;;;;6.18;1.20;;;3.80;99.90;;;;;;5073000;28;20048;-79
2023/01/18 12:49:35;;;;;;;2.08;1.23;;;3.80;99.90;;;;;;5075788;28;20512;-79
2023/01/18 12:52:03;;;;;;;4.10;2.03;;;3.80;99.90;;;;;;5073239;28;20063;-79
2023/01/18 12:54:34;;;;;;;1.95;1.00;;;3.90;99.90;;;;;;5070121;28;20124;-79
2023/01/18 12:57:02;;;;;;;5.15;1.80;;;3.90;99.90;;;;;;5070793;28;20060;-79
2023/01/18 12:59:39;;;;;;;2.47;1.35;;;3.90;99.90;;;;;;5076762;28;20490;-79
2023/01/18 13:02:31;;;;;;;2.55;1.70;;;3.90;99.90;;;;;;5078363;28;20032;-79
2023/01/18 13:05:09;;;;;;;2.55;1.60;;;3.90;99.90;;;;;;5076905;28;20055;-79
2023/01/18 13:07:39;;;;;;;2.35;1.33;;;4.00;99.90;;;;;;5067348;28;20097;-79
2023/01/18 13:10:12;;;;;;;2.65;1.33;;;4.00;99.90;;;;;;5068927;28;20056;-79
2023/01/18 13:12:38;;;;;;;3.35;1.27;;;4.00;99.90;;;;;;5069175;28;20346;-79
2023/01/18 13:15:14;;;;;;;3.53;1.52;;;4.00;99.90;;;;;;5054491;28;20498;-79
2023/01/18 13:17:47;;;;;;;2.75;1.50;;;4.00;99.90;;;;;;5069292;28;20059;-78
2023/01/18 13:20:24;;;;;;;2.70;1.10;;;4.00;99.90;;;;;;5068663;28;20152;-79
2023/01/18 13:22:50;;;;;;;5.95;1.55;;;4.10;99.90;;;;;;5068673;28;21811;-79
2023/01/18 13:25:33;;;;;;;2.75;1.15;;;4.10;99.90;;;;;;5071266;28;20139;-78
2023/01/18 13:28:12;;;;;;;2.45;1.48;;;4.10;99.90;;;;;;5053424;28;20063;-78
2023/01/18 13:30:55;;;;;;;3.03;1.33;;;4.20;99.90;;;;;;5073548;28;20065;-76
2023/01/18 13:33:27;;;;;;;2.70;1.60;;;4.20;99.90;;;;;;5051367;28;20040;-78
2023/01/18 13:36:10;;;;;;;1.80;0.95;;;4.20;99.90;;;;;;5064121;28;20123;-78
2023/01/18 13:38:47;;;;;;;4.05;1.40;;;4.30;99.90;;;;;;5067067;28;20047;-78
2023/01/18 13:41:13;;;;;;;3.55;1.48;;;4.20;99.90;;;;;;5072541;28;20123;-78
2023/01/18 13:43:40;;;;;;;1.98;1.17;;;4.20;99.90;;;;;;5050246;28;20123;-78
2023/01/18 13:46:05;;;;;;;1.60;1.02;;;4.20;99.90;;;;;;5070509;28;20075;-78
2023/01/18 13:48:46;;;;;;;9.63;1.70;;;4.20;99.90;;;;;;5064214;28;20448;-78
2023/01/18 13:51:40;;;;;;;2.65;1.20;;;4.20;99.90;;;;;;5081255;28;20036;-78
2023/01/18 13:54:10;;;;;;;2.20;1.20;;;4.20;99.90;;;;;;5070695;28;20469;-78